Waynesville, OH (45068)

1:53 AM EDT on April 30, 2017 (GMT -0400)
Rivers Edge | | Change Station

Elev 840 ft 39.53 °N, 84.06 °W | Updated 2 seconds ago

Overcast
Overcast
61.3 °F
Feels Like 61.3 °F
N
4.0
Wind Variable Wind from NE
Gusts 6.0 mph

Today
High -- | Low -- °F
--% Chance of Precip.
Yesterday
High -- | Low -- °F
Precip. -- in
Pressure 29.95 in
Visibility 5.0 miles
Clouds Scattered Clouds 600 ft
Scattered Clouds 4900 ft
Dew Point 60 °F
Humidity 94%
Rainfall 0.00 in
Snow Depth Not available.
6:38 AM 8:29 PM
Waxing Crescent, 19% visible
SPECI KMGY 300541Z AUTO 08005KT 5SM BR SCT006 SCT049 16/15 A2995 RMK AO2 LTG DSNT ALQDS T01610150
Pressure 29.95 in
Visibility 5.0 miles
Clouds Scattered Clouds 600 ft
Scattered Clouds 4900 ft
Dew Point 60 °F
Humidity 94%
Rainfall 0.00 in
Snow Depth Not available.
6:38 AM 8:29 PM
Waxing Crescent, 19% visible
SPECI KMGY 300541Z AUTO 08005KT 5SM BR SCT006 SCT049 16/15 A2995 RMK AO2 LTG DSNT ALQDS T01610150

Get Severe Weather Alerts

Thanks for signing up!

Be on the lookout for a verification email in your inbox.

You'll start receiving the daily forecast at 8 AM.

×

10-Day Weather Forecast

Almanac

Astronomy

Apr. 30, 2017 Rise Set
Actual Time
Civil Twilight
Nautical Twilight
Astronomical Twilight
Moon
Length of Visible Light
Length of Day
Tomorrow will be .
, % of the Moon is Illuminated

Today's Extremes

State Highs State Lows

Community

WunderPhotos

WunderBlog® & News

Nearby

Air Quality

  Air Quality AQ Index Pollutant
Not available.

Snow Depth

Station Depth Elevation

Earthquake Activity

City Distance Mag. Time & Date
Minimum magnitude displayed is 2.5.

Coastal Water Temperatures

Place Temperature

Stations

Nearby Weather Stations

Station Location Temp. Windchill Dew Point Humidity Wind Precip. Elev Updated Type
                   

Watches & Warnings

There are currently no watches in effect.